Time;durP1;ratioP1;P1;durP2;ratioP2;P2;SDS_P1;SDS_P2;PMS_P1;PMS_P2;Temp;Humidity;BMP_temperature;BMP_pressure;BME280_temperature;BME280_humidity;BME280_pressure;Samples;Min_cycle;Max_cycle;Signal;HPM_P1;HPM_P2
2023/04/08 00:00:12;;;;;;;32.75;14.07;;;;;;;;;;5009373;28;20029;-59
2023/04/08 00:02:40;;;;;;;34.75;14.88;;;;;;;;;;5010564;28;20499;-59
2023/04/08 00:05:07;;;;;;;35.40;15.05;;;;;;;;;;5009601;28;20034;-59
2023/04/08 00:07:33;;;;;;;35.72;14.93;;;;;;;;;;5010222;28;20045;-58
2023/04/08 00:09:59;;;;;;;40.78;16.55;;;;;;;;;;5007343;28;20527;-57
2023/04/08 00:12:26;;;;;;;37.83;15.40;;;;;;;;;;5009795;28;20045;-58
2023/04/08 00:14:52;;;;;;;38.13;15.18;;;;;;;;;;5009210;28;20037;-58
2023/04/08 00:17:18;;;;;;;33.75;14.43;;;;;;;;;;5008791;28;20056;-59
2023/04/08 00:19:44;;;;;;;34.20;14.75;;;;;;;;;;5009329;28;20499;-58
2023/04/08 00:22:10;;;;;;;36.67;15.95;;;;;;;;;;5010062;28;20305;-58
2023/04/08 00:24:37;;;;;;;38.25;15.82;;;;;;;;;;5009249;28;20046;-58
2023/04/08 00:27:03;;;;;;;42.45;17.17;;;;;;;;;;5009954;28;20037;-57
2023/04/08 00:29:29;;;;;;;41.53;16.35;;;;;;;;;;5007665;28;20045;-58
2023/04/08 00:31:55;;;;;;;43.15;17.08;;;;;;;;;;5008382;28;20046;-57
2023/04/08 00:34:23;;;;;;;38.53;15.48;;;;;;;;;;5008282;28;20045;-58
2023/04/08 00:36:49;;;;;;;43.17;17.45;;;;;;;;;;5008224;28;20034;-58
2023/04/08 00:39:15;;;;;;;39.15;16.50;;;;;;;;;;5008620;28;20391;-58
2023/04/08 00:41:42;;;;;;;37.85;16.88;;;;;;;;;;5009464;28;20026;-58
2023/04/08 00:44:08;;;;;;;45.35;18.10;;;;;;;;;;5007313;28;20038;-58
2023/04/08 00:46:37;;;;;;;42.65;17.55;;;;;;;;;;5009755;28;20054;-58
2023/04/08 00:49:04;;;;;;;49.05;18.33;;;;;;;;;;5002213;28;20069;-58
2023/04/08 00:51:30;;;;;;;49.47;18.48;;;;;;;;;;5008314;28;20030;-58
2023/04/08 00:53:57;;;;;;;46.30;19.40;;;;;;;;;;5006215;28;20500;-58
2023/04/08 00:56:23;;;;;;;54.75;19.05;;;;;;;;;;5009687;28;20018;-58
2023/04/08 00:58:53;;;;;;;52.97;20.35;;;;;;;;;;5009098;28;20034;-58
2023/04/08 01:01:42;;;;;;;47.25;19.30;;;;;;;;;;5004995;28;20041;-58
2023/04/08 01:04:36;;;;;;;49.00;18.60;;;;;;;;;;5003902;28;20037;-58
2023/04/08 01:07:10;;;;;;;45.78;18.05;;;;;;;;;;5000490;28;20086;-58
2023/04/08 01:09:38;;;;;;;49.53;18.50;;;;;;;;;;5008428;28;20045;-58
2023/04/08 01:12:08;;;;;;;44.88;18.08;;;;;;;;;;5006047;28;20412;-59
2023/04/08 01:14:40;;;;;;;42.30;16.85;;;;;;;;;;5007671;28;20499;-57
2023/04/08 01:17:08;;;;;;;41.78;17.02;;;;;;;;;;5018646;28;20041;-58
2023/04/08 01:19:38;;;;;;;43.47;16.52;;;;;;;;;;5008196;28;20057;-58
2023/04/08 01:22:21;;;;;;;43.35;17.98;;;;;;;;;;5011017;28;20042;-58
2023/04/08 01:24:49;;;;;;;42.63;17.88;;;;;;;;;;5012908;28;20034;-59
2023/04/08 01:27:17;;;;;;;40.58;17.20;;;;;;;;;;5013160;28;20041;-57
2023/04/08 01:29:44;;;;;;;38.03;17.38;;;;;;;;;;5008528;28;20057;-58
2023/04/08 01:32:12;;;;;;;39.55;16.42;;;;;;;;;;5013193;28;20037;-58
2023/04/08 01:34:40;;;;;;;36.53;15.57;;;;;;;;;;5011268;28;20041;-57
2023/04/08 01:37:07;;;;;;;33.72;15.18;;;;;;;;;;5013221;28;20037;-57
2023/04/08 01:39:35;;;;;;;35.33;16.38;;;;;;;;;;5010944;28;20462;-58
2023/04/08 01:42:02;;;;;;;35.80;15.38;;;;;;;;;;5012845;28;20388;-58
2023/04/08 01:44:29;;;;;;;34.47;15.35;;;;;;;;;;5010397;28;20034;-58
2023/04/08 01:46:55;;;;;;;31.77;15.48;;;;;;;;;;5009906;28;20054;-58
2023/04/08 01:49:24;;;;;;;31.13;15.05;;;;;;;;;;5006696;28;20041;-60
2023/04/08 01:51:52;;;;;;;30.40;15.30;;;;;;;;;;5012492;28;20041;-59
2023/04/08 01:54:18;;;;;;;35.13;16.35;;;;;;;;;;5012361;28;20053;-58
2023/04/08 01:56:45;;;;;;;34.47;15.77;;;;;;;;;;5012544;28;20037;-58
2023/04/08 01:59:15;;;;;;;33.13;15.32;;;;;;;;;;5005684;28;20034;-58
2023/04/08 02:01:43;;;;;;;36.50;15.63;;;;;;;;;;5008671;28;20041;-57
2023/04/08 02:04:10;;;;;;;27.57;13.63;;;;;;;;;;5012377;28;20033;-58
2023/04/08 02:06:36;;;;;;;30.33;13.85;;;;;;;;;;5006725;28;20647;-58
2023/04/08 02:09:03;;;;;;;34.47;16.33;;;;;;;;;;5023249;28;20097;-59
2023/04/08 02:11:29;;;;;;;31.42;15.00;;;;;;;;;;5008474;28;20050;-59
2023/04/08 02:13:57;;;;;;;32.53;15.35;;;;;;;;;;4993678;28;20034;-58
2023/04/08 02:16:23;;;;;;;29.55;14.10;;;;;;;;;;5010614;28;20497;-58
2023/04/08 02:18:57;;;;;;;33.28;15.02;;;;;;;;;;5010291;28;20049;-58
2023/04/08 02:21:35;;;;;;;28.17;14.73;;;;;;;;;;5005467;28;20515;-58
2023/04/08 02:24:06;;;;;;;31.95;14.50;;;;;;;;;;5012263;28;20053;-58
2023/04/08 02:26:35;;;;;;;28.08;13.80;;;;;;;;;;5010827;28;20045;-58
2023/04/08 02:29:04;;;;;;;34.83;14.55;;;;;;;;;;5011325;28;20030;-58
2023/04/08 02:31:31;;;;;;;30.95;14.98;;;;;;;;;;5009497;28;20471;-58
2023/04/08 02:33:58;;;;;;;26.38;13.32;;;;;;;;;;5011265;28;20049;-58
2023/04/08 02:36:25;;;;;;;28.17;13.77;;;;;;;;;;5011220;28;20030;-59
2023/04/08 02:38:51;;;;;;;25.98;14.10;;;;;;;;;;5009829;28;20395;-59
2023/04/08 02:41:17;;;;;;;28.05;13.77;;;;;;;;;;5010581;28;20046;-57
2023/04/08 02:43:43;;;;;;;26.13;13.00;;;;;;;;;;5010877;28;20061;-57
2023/04/08 02:46:10;;;;;;;27.73;13.85;;;;;;;;;;5008350;28;20042;-59
2023/04/08 02:48:36;;;;;;;27.88;14.13;;;;;;;;;;5011305;28;20408;-58
2023/04/08 02:51:03;;;;;;;27.25;14.50;;;;;;;;;;5009620;28;20042;-59
2023/04/08 02:53:29;;;;;;;26.83;13.27;;;;;;;;;;5008040;28;20400;-58
2023/04/08 02:55:55;;;;;;;25.55;13.48;;;;;;;;;;4991144;28;20045;-57
2023/04/08 02:58:21;;;;;;;27.65;13.52;;;;;;;;;;5010200;28;20482;-58
2023/04/08 03:00:47;;;;;;;25.30;13.00;;;;;;;;;;5009195;28;20046;-58
2023/04/08 03:03:13;;;;;;;26.80;13.85;;;;;;;;;;5011315;28;20388;-58
2023/04/08 03:05:40;;;;;;;27.55;14.00;;;;;;;;;;5010692;28;20050;-58
2023/04/08 03:08:06;;;;;;;27.92;14.35;;;;;;;;;;5009141;28;20056;-57
2023/04/08 03:10:32;;;;;;;26.20;14.00;;;;;;;;;;5010504;28;20054;-58
2023/04/08 03:12:58;;;;;;;26.02;13.82;;;;;;;;;;5011291;28;20520;-58
2023/04/08 03:15:24;;;;;;;25.52;13.45;;;;;;;;;;5009446;28;20056;-60
2023/04/08 03:17:50;;;;;;;27.42;13.80;;;;;;;;;;5010742;28;20034;-58
2023/04/08 03:20:16;;;;;;;27.15;13.32;;;;;;;;;;5010115;28;20072;-58
2023/04/08 03:22:43;;;;;;;25.23;13.88;;;;;;;;;;5011160;28;20050;-59
2023/04/08 03:25:10;;;;;;;25.08;13.30;;;;;;;;;;5009324;28;20041;-58
2023/04/08 03:27:36;;;;;;;25.90;13.52;;;;;;;;;;5009596;28;20034;-58
2023/04/08 03:30:03;;;;;;;24.70;13.00;;;;;;;;;;5007708;28;20467;-59
2023/04/08 03:32:29;;;;;;;26.63;14.85;;;;;;;;;;5010495;28;20060;-58
2023/04/08 03:34:55;;;;;;;23.60;12.38;;;;;;;;;;5010289;28;20053;-59
2023/04/08 03:37:21;;;;;;;22.13;12.15;;;;;;;;;;5010738;28;20074;-60
2023/04/08 03:39:47;;;;;;;24.95;12.80;;;;;;;;;;5008413;28;20038;-58
2023/04/08 03:42:14;;;;;;;24.38;13.23;;;;;;;;;;5010429;28;20033;-58
2023/04/08 03:44:40;;;;;;;25.05;12.50;;;;;;;;;;5009874;28;20029;-57
2023/04/08 03:47:06;;;;;;;23.70;12.60;;;;;;;;;;5010502;28;20377;-58
2023/04/08 03:49:32;;;;;;;25.50;14.05;;;;;;;;;;5009793;28;20052;-59
2023/04/08 03:51:58;;;;;;;25.65;12.48;;;;;;;;;;5008542;28;20032;-58
2023/04/08 03:54:24;;;;;;;24.05;12.70;;;;;;;;;;5010281;28;20041;-59
2023/04/08 03:56:50;;;;;;;27.17;13.07;;;;;;;;;;5008121;28;20113;-58
2023/04/08 03:59:17;;;;;;;23.67;13.05;;;;;;;;;;5008503;28;20056;-58
2023/04/08 04:01:43;;;;;;;25.00;13.07;;;;;;;;;;5007189;28;20041;-58
2023/04/08 04:04:09;;;;;;;25.00;13.23;;;;;;;;;;5009691;28;20038;-57
2023/04/08 04:06:36;;;;;;;26.92;13.27;;;;;;;;;;5010108;28;20057;-58
2023/04/08 04:09:02;;;;;;;26.27;13.10;;;;;;;;;;5006599;28;20041;-58
2023/04/08 04:11:28;;;;;;;25.42;12.75;;;;;;;;;;5009447;28;20412;-58
2023/04/08 04:13:55;;;;;;;24.65;13.25;;;;;;;;;;5009542;28;20042;-58
2023/04/08 04:16:21;;;;;;;24.88;13.18;;;;;;;;;;5007245;28;20086;-57
2023/04/08 04:18:47;;;;;;;27.95;12.70;;;;;;;;;;5004686;28;20048;-58
2023/04/08 04:21:13;;;;;;;27.20;13.77;;;;;;;;;;5008262;28;20061;-57
2023/04/08 04:23:39;;;;;;;25.83;12.77;;;;;;;;;;5010017;28;20034;-58
2023/04/08 04:26:08;;;;;;;23.65;12.48;;;;;;;;;;5009784;28;20076;-58
2023/04/08 04:28:35;;;;;;;27.85;13.65;;;;;;;;;;5008318;28;20041;-58
2023/04/08 04:31:01;;;;;;;25.00;13.45;;;;;;;;;;5009262;28;20051;-57
2023/04/08 04:33:27;;;;;;;26.27;13.75;;;;;;;;;;5009366;28;20037;-59
2023/04/08 04:35:53;;;;;;;22.38;12.68;;;;;;;;;;5009436;28;20503;-57
2023/04/08 04:38:20;;;;;;;24.60;12.68;;;;;;;;;;5009619;28;20034;-58
2023/04/08 04:40:46;;;;;;;24.50;13.18;;;;;;;;;;5008919;28;20056;-58
2023/04/08 04:43:12;;;;;;;25.52;13.13;;;;;;;;;;5009270;28;20046;-58
2023/04/08 04:45:38;;;;;;;22.73;12.55;;;;;;;;;;5009272;28;20038;-58
2023/04/08 04:48:04;;;;;;;22.25;12.35;;;;;;;;;;5009603;28;20037;-58
2023/04/08 04:50:30;;;;;;;22.10;11.50;;;;;;;;;;5009090;28;20040;-58
2023/04/08 04:52:56;;;;;;;24.92;13.15;;;;;;;;;;5009417;28;20775;-58
2023/04/08 04:55:22;;;;;;;26.08;12.40;;;;;;;;;;5010522;28;20045;-58
2023/04/08 04:57:49;;;;;;;20.63;11.93;;;;;;;;;;5013327;28;20049;-58
2023/04/08 05:00:15;;;;;;;22.60;12.18;;;;;;;;;;5012485;28;20085;-57
2023/04/08 05:02:42;;;;;;;23.65;12.63;;;;;;;;;;5011231;28;20040;-57
2023/04/08 05:05:08;;;;;;;26.85;12.55;;;;;;;;;;5012263;28;20045;-57
2023/04/08 05:07:35;;;;;;;24.02;12.55;;;;;;;;;;5013731;28;20408;-58
2023/04/08 05:10:03;;;;;;;23.00;12.00;;;;;;;;;;5012887;28;20394;-57
2023/04/08 05:12:29;;;;;;;22.58;11.85;;;;;;;;;;5009480;28;20042;-58
2023/04/08 05:14:58;;;;;;;23.20;12.35;;;;;;;;;;5013137;28;20041;-58
2023/04/08 05:17:24;;;;;;;21.23;11.02;;;;;;;;;;5013624;28;20034;-56
2023/04/08 05:19:52;;;;;;;20.42;10.88;;;;;;;;;;5006784;28;20419;-57
2023/04/08 05:22:18;;;;;;;21.33;10.48;;;;;;;;;;5007262;28;20030;-57
2023/04/08 05:24:44;;;;;;;22.17;11.02;;;;;;;;;;5013370;28;20511;-58
2023/04/08 05:27:10;;;;;;;22.13;10.65;;;;;;;;;;5012814;28;20045;-57
2023/04/08 05:29:36;;;;;;;20.73;10.90;;;;;;;;;;5009146;28;20053;-58
2023/04/08 05:32:02;;;;;;;21.40;10.90;;;;;;;;;;5013008;28;20037;-58
2023/04/08 05:34:30;;;;;;;23.75;11.52;;;;;;;;;;5013903;28;20673;-58
2023/04/08 05:36:56;;;;;;;23.33;11.52;;;;;;;;;;5013581;28;20049;-58
2023/04/08 05:39:22;;;;;;;21.75;11.77;;;;;;;;;;5012052;28;20057;-57
2023/04/08 05:41:49;;;;;;;23.92;12.27;;;;;;;;;;5013089;28;20423;-57
2023/04/08 05:44:15;;;;;;;26.02;13.38;;;;;;;;;;5012681;28;20034;-56
2023/04/08 05:46:41;;;;;;;25.77;13.10;;;;;;;;;;5013333;28;20078;-57
2023/04/08 05:49:07;;;;;;;24.88;12.40;;;;;;;;;;5012680;28;20041;-58
2023/04/08 05:51:33;;;;;;;24.75;12.27;;;;;;;;;;5013018;28;20045;-57
2023/04/08 05:54:00;;;;;;;23.38;12.52;;;;;;;;;;5008817;28;20034;-58
2023/04/08 05:56:26;;;;;;;25.02;12.20;;;;;;;;;;5013311;28;20361;-58
2023/04/08 05:58:52;;;;;;;24.10;12.63;;;;;;;;;;5012568;28;20030;-58
2023/04/08 06:01:18;;;;;;;22.58;12.18;;;;;;;;;;5008069;28;20033;-56
2023/04/08 06:03:44;;;;;;;25.65;12.20;;;;;;;;;;5011641;28;20065;-56
2023/04/08 06:06:10;;;;;;;24.23;12.73;;;;;;;;;;5011894;28;20057;-58
2023/04/08 06:08:36;;;;;;;27.48;13.98;;;;;;;;;;5012213;28;20506;-58
2023/04/08 06:11:04;;;;;;;24.05;12.70;;;;;;;;;;5012147;28;20511;-57
2023/04/08 06:13:30;;;;;;;25.73;13.63;;;;;;;;;;5012635;28;20048;-57
2023/04/08 06:15:57;;;;;;;24.60;12.63;;;;;;;;;;5012653;28;20546;-58
2023/04/08 06:18:23;;;;;;;21.98;12.73;;;;;;;;;;5012380;28;20026;-57
2023/04/08 06:20:49;;;;;;;21.80;12.38;;;;;;;;;;5011824;28;20050;-58
2023/04/08 06:23:16;;;;;;;23.40;12.55;;;;;;;;;;5003512;28;20424;-58
2023/04/08 06:25:42;;;;;;;21.58;12.05;;;;;;;;;;5011911;28;20041;-58
2023/04/08 06:28:08;;;;;;;20.42;11.68;;;;;;;;;;5011506;28;20033;-58
2023/04/08 06:30:34;;;;;;;21.80;12.05;;;;;;;;;;5010820;28;20045;-58
2023/04/08 06:33:00;;;;;;;22.05;11.38;;;;;;;;;;5011440;28;20400;-58
2023/04/08 06:35:26;;;;;;;23.45;12.45;;;;;;;;;;5011124;28;20052;-57
2023/04/08 06:37:52;;;;;;;23.00;12.20;;;;;;;;;;5009620;28;20057;-57
2023/04/08 06:40:18;;;;;;;23.65;12.18;;;;;;;;;;5011266;28;20054;-57
2023/04/08 06:42:45;;;;;;;23.88;11.98;;;;;;;;;;5012062;28;20488;-59
2023/04/08 06:45:34;;;;;;;24.70;12.60;;;;;;;;;;5011692;28;20084;-58
2023/04/08 06:48:00;;;;;;;27.48;13.15;;;;;;;;;;5011691;28;20060;-59
2023/04/08 06:50:26;;;;;;;32.80;15.13;;;;;;;;;;5009712;28;20044;-58
2023/04/08 06:52:53;;;;;;;30.08;14.88;;;;;;;;;;5012158;28;20045;-58
2023/04/08 06:55:20;;;;;;;46.17;17.23;;;;;;;;;;5010186;28;20037;-57
2023/04/08 06:57:46;;;;;;;42.60;17.23;;;;;;;;;;5007553;28;20030;-57
2023/04/08 07:00:12;;;;;;;33.97;15.95;;;;;;;;;;5010534;28;20074;-58
2023/04/08 07:02:38;;;;;;;17.33;6.63;;;;;;;;;;5011218;28;20038;-57
2023/04/08 07:05:05;;;;;;;19.75;10.65;;;;;;;;;;5011418;28;20456;-57
2023/04/08 07:07:32;;;;;;;28.02;13.40;;;;;;;;;;5011640;28;20038;-56
2023/04/08 07:09:58;;;;;;;28.23;14.23;;;;;;;;;;5010741;28;20034;-58
2023/04/08 07:12:24;;;;;;;25.42;12.93;;;;;;;;;;5011350;28;20038;-57
2023/04/08 07:14:51;;;;;;;23.35;12.70;;;;;;;;;;5010592;28;20052;-58
2023/04/08 07:17:18;;;;;;;25.90;13.77;;;;;;;;;;5011187;28;20038;-57
2023/04/08 07:19:44;;;;;;;29.92;14.43;;;;;;;;;;5007536;28;20038;-57
2023/04/08 07:22:10;;;;;;;26.17;13.50;;;;;;;;;;5004915;28;20034;-56
2023/04/08 07:24:36;;;;;;;28.90;14.27;;;;;;;;;;5010521;28;20391;-58
2023/04/08 07:27:03;;;;;;;25.48;13.38;;;;;;;;;;5010843;28;20049;-58
2023/04/08 07:29:29;;;;;;;24.33;13.45;;;;;;;;;;5009754;28;20387;-58
2023/04/08 07:31:55;;;;;;;24.45;13.80;;;;;;;;;;5009565;28;20510;-57
2023/04/08 07:34:21;;;;;;;25.38;14.30;;;;;;;;;;5010578;28;20034;-60
2023/04/08 07:36:47;;;;;;;25.15;13.98;;;;;;;;;;5010009;28;20444;-60
2023/04/08 07:39:13;;;;;;;26.35;13.95;;;;;;;;;;5009252;28;20038;-60
2023/04/08 07:41:39;;;;;;;26.75;14.27;;;;;;;;;;5009948;28;20026;-59
2023/04/08 07:44:06;;;;;;;27.80;14.20;;;;;;;;;;5009782;28;20042;-57
2023/04/08 07:46:36;;;;;;;25.08;14.40;;;;;;;;;;5008856;28;20034;-57
2023/04/08 07:49:02;;;;;;;;;;;;;;;;;;5009269;28;20041;-58
2023/04/08 07:51:28;;;;;;;28.05;14.50;;;;;;;;;;5009850;28;20342;-59
2023/04/08 07:53:55;;;;;;;25.10;14.18;;;;;;;;;;5010443;28;20125;-57
2023/04/08 07:56:22;;;;;;;28.23;14.27;;;;;;;;;;5010525;28;20033;-58
2023/04/08 07:58:49;;;;;;;25.58;13.80;;;;;;;;;;5009650;28;20056;-58
2023/04/08 08:01:22;;;;;;;27.00;14.43;;;;;;;;;;5009583;28;20535;-57
2023/04/08 08:03:49;;;;;;;25.83;13.25;;;;;;;;;;5010392;28;20030;-58
2023/04/08 08:06:16;;;;;;;24.70;12.93;;;;;;;;;;5010144;28;20038;-58
2023/04/08 08:08:42;;;;;;;25.25;13.48;;;;;;;;;;5010347;28;20049;-58
2023/04/08 08:11:09;;;;;;;24.67;13.55;;;;;;;;;;5009693;28;20048;-58
2023/04/08 08:13:35;;;;;;;25.38;12.93;;;;;;;;;;5009798;28;20573;-57
2023/04/08 08:16:02;;;;;;;84.90;27.52;;;;;;;;;;5009891;28;20045;-52
2023/04/08 08:18:28;;;;;;;44.08;18.83;;;;;;;;;;5010126;28;20511;-58
2023/04/08 08:21:00;;;;;;;126.65;37.95;;;;;;;;;;5003293;28;20061;-57
2023/04/08 08:23:26;;;;;;;24.88;13.93;;;;;;;;;;5009983;28;20057;-57
2023/04/08 08:26:03;;;;;;;19.45;11.70;;;;;;;;;;5009852;28;20034;-58
2023/04/08 08:28:30;;;;;;;20.88;11.68;;;;;;;;;;5009538;28;20392;-57
2023/04/08 08:30:56;;;;;;;21.73;13.15;;;;;;;;;;5008659;28;20041;-57
2023/04/08 08:33:23;;;;;;;23.45;12.48;;;;;;;;;;5010179;28;20038;-57
2023/04/08 08:35:49;;;;;;;27.63;14.10;;;;;;;;;;5009886;28;20407;-57
2023/04/08 08:38:16;;;;;;;55.33;23.33;;;;;;;;;;5009800;28;20042;-58
2023/04/08 08:40:44;;;;;;;29.15;16.13;;;;;;;;;;5006624;28;20041;-57
2023/04/08 08:43:10;;;;;;;26.10;15.40;;;;;;;;;;5009633;28;20423;-56
2023/04/08 08:45:40;;;;;;;23.38;13.20;;;;;;;;;;5006821;28;20045;-57
2023/04/08 08:48:07;;;;;;;26.92;14.15;;;;;;;;;;5008044;28;20030;-57
2023/04/08 08:50:36;;;;;;;25.00;13.98;;;;;;;;;;5006798;28;20048;-57
2023/04/08 08:53:02;;;;;;;22.92;13.18;;;;;;;;;;5009805;28;20037;-57
2023/04/08 08:55:33;;;;;;;23.48;12.13;;;;;;;;;;5009530;28;20034;-58
2023/04/08 08:58:00;;;;;;;21.45;12.55;;;;;;;;;;5009761;28;20037;-58
2023/04/08 09:00:32;;;;;;;22.35;13.00;;;;;;;;;;5009198;28;20544;-57
2023/04/08 09:03:18;;;;;;;22.13;12.85;;;;;;;;;;5010076;28;20050;-58
2023/04/08 09:05:57;;;;;;;26.13;12.85;;;;;;;;;;5009248;28;20519;-58
2023/04/08 09:08:31;;;;;;;22.58;12.88;;;;;;;;;;5009738;28;20038;-57
2023/04/08 09:11:17;;;;;;;24.08;13.63;;;;;;;;;;5009238;28;20049;-58
2023/04/08 09:13:45;;;;;;;25.20;13.88;;;;;;;;;;5009112;28;20049;-57
2023/04/08 09:16:13;;;;;;;23.70;13.10;;;;;;;;;;5009136;28;20037;-58
2023/04/08 09:18:43;;;;;;;25.10;13.80;;;;;;;;;;5008596;28;20042;-59
2023/04/08 09:21:10;;;;;;;23.88;13.05;;;;;;;;;;5008513;28;20034;-58
2023/04/08 09:23:45;;;;;;;24.23;14.05;;;;;;;;;;5008484;28;20562;-57
2023/04/08 09:26:21;;;;;;;21.52;12.40;;;;;;;;;;5007379;28;20037;-58
2023/04/08 09:29:03;;;;;;;24.70;13.65;;;;;;;;;;5008821;28;20050;-56
2023/04/08 09:31:31;;;;;;;23.75;13.00;;;;;;;;;;5008862;28;20488;-58
2023/04/08 09:34:01;;;;;;;22.70;13.70;;;;;;;;;;5009235;28;20033;-58
2023/04/08 09:36:27;;;;;;;;;;;;;;;;;;5009687;28;20045;-57
2023/04/08 09:38:54;;;;;;;22.40;13.27;;;;;;;;;;5007743;28;19914;-57
2023/04/08 09:41:24;;;;;;;23.75;14.23;;;;;;;;;;5009881;28;20032;-59
2023/04/08 09:43:53;;;;;;;24.63;14.35;;;;;;;;;;5012536;28;20037;-57
2023/04/08 09:46:37;;;;;;;26.95;14.45;;;;;;;;;;5012640;28;20530;-58
2023/04/08 09:49:12;;;;;;;22.67;12.95;;;;;;;;;;5010461;28;20033;-58
2023/04/08 09:52:06;;;;;;;26.20;14.60;;;;;;;;;;5009730;28;20057;-59
2023/04/08 09:54:51;;;;;;;24.85;14.73;;;;;;;;;;5012502;28;20650;-58
2023/04/08 09:57:40;;;;;;;23.25;13.95;;;;;;;;;;5010310;28;20049;-57
2023/04/08 10:00:11;;;;;;;22.60;13.27;;;;;;;;;;5004454;28;20033;-58
2023/04/08 10:02:59;;;;;;;24.95;14.57;;;;;;;;;;5012722;28;20403;-59
2023/04/08 10:05:26;;;;;;;24.30;14.90;;;;;;;;;;5012565;28;20033;-60
2023/04/08 10:07:54;;;;;;;22.33;13.85;;;;;;;;;;5012883;28;20045;-57
2023/04/08 10:10:21;;;;;;;24.17;14.77;;;;;;;;;;5011739;28;20037;-58
2023/04/08 10:12:48;;;;;;;21.65;14.52;;;;;;;;;;5012412;28;20034;-58
2023/04/08 10:15:20;;;;;;;24.48;15.57;;;;;;;;;;5011150;28;20045;-58
2023/04/08 10:17:47;;;;;;;26.83;15.82;;;;;;;;;;5011804;28;20038;-58
2023/04/08 10:20:35;;;;;;;23.20;14.55;;;;;;;;;;5009950;28;20435;-59
2023/04/08 10:23:09;;;;;;;26.85;16.23;;;;;;;;;;5012173;28;20037;-58
2023/04/08 10:25:36;;;;;;;23.63;15.75;;;;;;;;;;5010397;28;20050;-58
2023/04/08 10:28:16;;;;;;;23.63;15.05;;;;;;;;;;5008343;28;20543;-57
2023/04/08 10:30:49;;;;;;;27.77;17.98;;;;;;;;;;5009093;28;20045;-58
2023/04/08 10:33:18;;;;;;;25.95;16.75;;;;;;;;;;5011965;28;20037;-58
2023/04/08 10:36:08;;;;;;;26.33;16.27;;;;;;;;;;5011926;28;20049;-58
2023/04/08 10:38:34;;;;;;;24.20;15.05;;;;;;;;;;5008839;28;20037;-58
2023/04/08 10:41:01;;;;;;;28.95;18.05;;;;;;;;;;5011157;28;20496;-58
2023/04/08 10:43:32;;;;;;;27.73;16.63;;;;;;;;;;5011364;28;20407;-58
2023/04/08 10:45:58;;;;;;;28.55;17.65;;;;;;;;;;5011520;28;20049;-58
2023/04/08 10:48:25;;;;;;;27.05;17.10;;;;;;;;;;5011820;28;20033;-58
2023/04/08 10:50:53;;;;;;;25.88;16.00;;;;;;;;;;5011178;28;20042;-59
2023/04/08 10:53:29;;;;;;;25.87;16.57;;;;;;;;;;5010671;28;20510;-57
2023/04/08 10:56:14;;;;;;;25.05;16.45;;;;;;;;;;5010699;28;20419;-58
2023/04/08 10:58:51;;;;;;;30.02;16.42;;;;;;;;;;5007857;28;20532;-58
2023/04/08 11:01:18;;;;;;;25.23;16.17;;;;;;;;;;5009751;28;20510;-58
2023/04/08 11:03:44;;;;;;;26.85;16.27;;;;;;;;;;5009597;28;20048;-59
2023/04/08 11:06:10;;;;;;;23.05;10.73;;;;;;;;;;5010978;28;20037;-57
2023/04/08 11:08:37;;;;;;;28.55;16.25;;;;;;;;;;5009636;28;20526;-59
2023/04/08 11:11:09;;;;;;;29.38;17.33;;;;;;;;;;5008267;28;20037;-58
2023/04/08 11:13:39;;;;;;;31.02;18.85;;;;;;;;;;5010888;28;20034;-57
2023/04/08 11:16:06;;;;;;;28.08;17.23;;;;;;;;;;5009752;28;20052;-59
2023/04/08 11:18:34;;;;;;;30.52;19.27;;;;;;;;;;5010129;28;20030;-59
2023/04/08 11:21:01;;;;;;;30.88;18.98;;;;;;;;;;5010410;28;20520;-60
2023/04/08 11:23:27;;;;;;;29.52;17.90;;;;;;;;;;5011340;28;20054;-59
2023/04/08 11:25:54;;;;;;;29.52;18.52;;;;;;;;;;5010467;28;20045;-59
2023/04/08 11:28:21;;;;;;;30.30;19.42;;;;;;;;;;5010715;28;20026;-60
2023/04/08 11:30:48;;;;;;;30.95;19.35;;;;;;;;;;5010344;28;20407;-59
2023/04/08 11:33:14;;;;;;;32.70;20.23;;;;;;;;;;5010872;28;20035;-59
2023/04/08 11:35:41;;;;;;;30.63;18.65;;;;;;;;;;5008724;28;20520;-58
2023/04/08 11:38:09;;;;;;;33.33;19.30;;;;;;;;;;5010393;28;20046;-58
2023/04/08 11:40:36;;;;;;;35.78;20.35;;;;;;;;;;5010108;28;20046;-59
2023/04/08 11:43:14;;;;;;;37.47;20.80;;;;;;;;;;5010452;28;20034;-58
2023/04/08 11:45:41;;;;;;;38.95;20.92;;;;;;;;;;5008050;28;20053;-58
2023/04/08 11:48:12;;;;;;;37.80;23.02;;;;;;;;;;5007170;28;20030;-59
2023/04/08 11:50:39;;;;;;;36.33;20.98;;;;;;;;;;5010086;28;20041;-58
2023/04/08 11:53:19;;;;;;;36.38;19.60;;;;;;;;;;5010193;28;20026;-56
2023/04/08 11:55:46;;;;;;;33.65;19.15;;;;;;;;;;5006908;28;20030;-59
2023/04/08 11:58:12;;;;;;;35.80;19.92;;;;;;;;;;5008123;28;20038;-59
2023/04/08 12:00:38;;;;;;;36.97;19.73;;;;;;;;;;5008927;28;20038;-58
2023/04/08 12:03:05;;;;;;;33.50;18.20;;;;;;;;;;5009441;28;20403;-58
2023/04/08 12:05:31;;;;;;;36.15;20.15;;;;;;;;;;5004854;28;20484;-57
2023/04/08 12:07:57;;;;;;;36.03;18.67;;;;;;;;;;5010290;28;20411;-59
2023/04/08 12:10:26;;;;;;;40.13;20.35;;;;;;;;;;5007714;28;20436;-59
2023/04/08 12:12:52;;;;;;;42.93;21.53;;;;;;;;;;5004036;28;20041;-58
2023/04/08 12:15:18;;;;;;;39.70;19.98;;;;;;;;;;5005670;28;20084;-58
2023/04/08 12:17:45;;;;;;;39.28;20.63;;;;;;;;;;5007807;28;20038;-59
2023/04/08 12:20:11;;;;;;;42.55;20.15;;;;;;;;;;5008424;28;20045;-57
2023/04/08 12:22:40;;;;;;;;;;;;;;;;;;5006994;28;20041;-58
2023/04/08 12:25:07;;;;;;;36.90;19.77;;;;;;;;;;5006775;28;19921;-58
2023/04/08 12:27:33;;;;;;;44.00;21.15;;;;;;;;;;5009785;28;20041;-59
2023/04/08 12:30:01;;;;;;;42.67;20.25;;;;;;;;;;5007192;28;20037;-58
2023/04/08 12:32:30;;;;;;;43.80;20.25;;;;;;;;;;5009785;28;20037;-59
2023/04/08 12:34:56;;;;;;;41.63;19.60;;;;;;;;;;5005685;28;20057;-58
2023/04/08 12:37:23;;;;;;;48.75;21.45;;;;;;;;;;5008203;28;20037;-58
2023/04/08 12:39:49;;;;;;;42.42;21.23;;;;;;;;;;5008554;28;20053;-58
2023/04/08 12:42:15;;;;;;;42.40;21.92;;;;;;;;;;5009209;28;20029;-57
2023/04/08 12:44:41;;;;;;;43.85;21.17;;;;;;;;;;5008651;28;20046;-58
2023/04/08 12:47:07;;;;;;;41.55;21.35;;;;;;;;;;5006869;28;20046;-59
2023/04/08 12:49:34;;;;;;;41.90;21.52;;;;;;;;;;5003885;28;20069;-57
2023/04/08 12:52:00;;;;;;;42.72;20.52;;;;;;;;;;5009006;28;20053;-57
2023/04/08 12:54:26;;;;;;;47.45;22.10;;;;;;;;;;5009287;28;20045;-58
2023/04/08 12:56:52;;;;;;;47.30;23.00;;;;;;;;;;5009382;28;20046;-59
2023/04/08 12:59:18;;;;;;;45.30;20.83;;;;;;;;;;5004696;28;20037;-58
2023/04/08 13:01:45;;;;;;;37.50;19.92;;;;;;;;;;5009763;28;20507;-58
2023/04/08 13:04:11;;;;;;;41.17;20.27;;;;;;;;;;4991654;28;20531;-57
2023/04/08 13:06:37;;;;;;;38.80;19.10;;;;;;;;;;5010210;28;20041;-58
2023/04/08 13:09:03;;;;;;;40.47;19.33;;;;;;;;;;5009521;28;20042;-58
2023/04/08 13:11:30;;;;;;;37.60;19.73;;;;;;;;;;5009547;28;20026;-58
2023/04/08 13:13:56;;;;;;;38.88;19.98;;;;;;;;;;5008511;28;20045;-59
2023/04/08 13:16:22;;;;;;;42.22;21.02;;;;;;;;;;5010599;28;20535;-58
2023/04/08 13:18:48;;;;;;;42.35;20.92;;;;;;;;;;5013153;28;20135;-59
2023/04/08 13:21:14;;;;;;;24.23;12.27;;;;;;;;;;5012454;28;20030;-58
2023/04/08 13:23:40;;;;;;;26.33;12.60;;;;;;;;;;5012745;28;20046;-59
2023/04/08 13:26:06;;;;;;;27.83;14.65;;;;;;;;;;5033210;28;20030;-59
2023/04/08 13:28:32;;;;;;;30.92;16.58;;;;;;;;;;5012730;28;20045;-60
2023/04/08 13:30:58;;;;;;;31.08;15.50;;;;;;;;;;5010336;28;20056;-60
2023/04/08 13:33:25;;;;;;;32.30;15.90;;;;;;;;;;5012019;28;20041;-59
2023/04/08 13:35:51;;;;;;;30.10;15.75;;;;;;;;;;5010282;28;20044;-58
2023/04/08 13:38:17;;;;;;;41.90;17.42;;;;;;;;;;5012195;28;20050;-59
2023/04/08 13:40:44;;;;;;;44.42;17.52;;;;;;;;;;5012259;28;20029;-60
2023/04/08 13:43:10;;;;;;;40.17;16.75;;;;;;;;;;5009242;28;20155;-58
2023/04/08 13:45:36;;;;;;;41.75;15.82;;;;;;;;;;5013165;28;20399;-58
2023/04/08 13:48:03;;;;;;;35.58;16.27;;;;;;;;;;5012859;28;20045;-58
2023/04/08 13:50:30;;;;;;;40.17;16.80;;;;;;;;;;5010502;28;20411;-59
2023/04/08 13:52:56;;;;;;;44.08;16.48;;;;;;;;;;5011757;28;20044;-59
2023/04/08 13:55:22;;;;;;;38.55;16.38;;;;;;;;;;5009091;28;20030;-59
2023/04/08 13:57:48;;;;;;;38.80;18.85;;;;;;;;;;5011332;28;20678;-59
2023/04/08 14:00:15;;;;;;;37.05;17.80;;;;;;;;;;5011532;28;20030;-58
2023/04/08 14:02:41;;;;;;;33.22;17.25;;;;;;;;;;5009741;28;20420;-59
2023/04/08 14:05:07;;;;;;;37.03;18.38;;;;;;;;;;5009538;28;20046;-58
2023/04/08 14:07:34;;;;;;;44.17;22.10;;;;;;;;;;5012743;28;20527;-58
2023/04/08 14:10:00;;;;;;;42.92;22.58;;;;;;;;;;5011111;28;20057;-58
2023/04/08 14:12:26;;;;;;;44.65;22.75;;;;;;;;;;5012688;28;20057;-58
2023/04/08 14:14:52;;;;;;;45.60;22.85;;;;;;;;;;5011566;28;20042;-57
2023/04/08 14:17:18;;;;;;;42.25;22.48;;;;;;;;;;5012504;28;20057;-58
2023/04/08 14:19:44;;;;;;;48.30;25.05;;;;;;;;;;5011061;28;20029;-58
2023/04/08 14:22:11;;;;;;;43.63;21.58;;;;;;;;;;5012768;28;20038;-58